sensor_id;sensor_type;location;lat;lon;timestamp;P1;durP1;ratioP1;P2;durP2;ratioP2
2213;SDS011;1113;42.018;23.986;2023-06-22T04:29:41;25.13;;;22.43;;
2213;SDS011;1113;42.018;23.986;2023-06-22T04:32:14;23.70;;;21.30;;
2213;SDS011;1113;42.018;23.986;2023-06-22T04:34:41;21.17;;;18.20;;
2213;SDS011;1113;42.018;23.986;2023-06-22T04:37:07;17.87;;;16.10;;
2213;SDS011;1113;42.018;23.986;2023-06-22T04:39:34;19.20;;;15.70;;
2213;SDS011;1113;42.018;23.986;2023-06-22T04:42:02;18.70;;;16.80;;
2213;SDS011;1113;42.018;23.986;2023-06-22T04:44:29;17.97;;;16.03;;
2213;SDS011;1113;42.018;23.986;2023-06-22T04:46:57;20.53;;;17.90;;
2213;SDS011;1113;42.018;23.986;2023-06-22T04:49:27;20.77;;;18.53;;
2213;SDS011;1113;42.018;23.986;2023-06-22T04:51:58;18.23;;;16.37;;
2213;SDS011;1113;42.018;23.986;2023-06-22T04:54:25;18.93;;;15.83;;
2213;SDS011;1113;42.018;23.986;2023-06-22T04:56:52;17.33;;;15.47;;
2213;SDS011;1113;42.018;23.986;2023-06-22T04:59:21;23.63;;;15.70;;
2213;SDS011;1113;42.018;23.986;2023-06-22T05:01:53;17.50;;;14.70;;
2213;SDS011;1113;42.018;23.986;2023-06-22T05:04:22;20.03;;;16.07;;
2213;SDS011;1113;42.018;23.986;2023-06-22T05:06:49;23.90;;;15.77;;
2213;SDS011;1113;42.018;23.986;2023-06-22T05:09:16;18.10;;;15.53;;
2213;SDS011;1113;42.018;23.986;2023-06-22T05:11:43;15.23;;;13.73;;
2213;SDS011;1113;42.018;23.986;2023-06-22T05:14:10;20.23;;;15.30;;
2213;SDS011;1113;42.018;23.986;2023-06-22T05:16:37;19.37;;;17.37;;
2213;SDS011;1113;42.018;23.986;2023-06-22T05:19:04;17.67;;;15.43;;
2213;SDS011;1113;42.018;23.986;2023-06-22T05:21:33;17.87;;;16.00;;
2213;SDS011;1113;42.018;23.986;2023-06-22T05:24:00;16.07;;;14.37;;
2213;SDS011;1113;42.018;23.986;2023-06-22T05:26:28;19.47;;;15.83;;
2213;SDS011;1113;42.018;23.986;2023-06-22T05:28:56;18.30;;;15.60;;
2213;SDS011;1113;42.018;23.986;2023-06-22T05:31:23;17.60;;;15.70;;
2213;SDS011;1113;42.018;23.986;2023-06-22T05:33:51;17.73;;;16.03;;
2213;SDS011;1113;42.018;23.986;2023-06-22T05:36:19;18.30;;;16.43;;
2213;SDS011;1113;42.018;23.986;2023-06-22T05:38:47;19.17;;;17.03;;
2213;SDS011;1113;42.018;23.986;2023-06-22T05:41:14;18.93;;;16.93;;
2213;SDS011;1113;42.018;23.986;2023-06-22T05:43:41;16.93;;;15.23;;
2213;SDS011;1113;42.018;23.986;2023-06-22T05:46:08;19.20;;;17.07;;
2213;SDS011;1113;42.018;23.986;2023-06-22T05:48:34;19.13;;;16.50;;
2213;SDS011;1113;42.018;23.986;2023-06-22T05:51:01;19.33;;;17.00;;
2213;SDS011;1113;42.018;23.986;2023-06-22T05:53:29;16.37;;;14.67;;
2213;SDS011;1113;42.018;23.986;2023-06-22T05:55:57;18.10;;;16.30;;
2213;SDS011;1113;42.018;23.986;2023-06-22T05:58:24;20.83;;;16.13;;
2213;SDS011;1113;42.018;23.986;2023-06-22T06:00:50;17.90;;;15.93;;
2213;SDS011;1113;42.018;23.986;2023-06-22T06:03:17;17.83;;;16.03;;
2213;SDS011;1113;42.018;23.986;2023-06-22T06:05:44;18.63;;;16.77;;
2213;SDS011;1113;42.018;23.986;2023-06-22T06:08:11;18.43;;;16.43;;
2213;SDS011;1113;42.018;23.986;2023-06-22T06:10:38;17.20;;;15.57;;
2213;SDS011;1113;42.018;23.986;2023-06-22T06:13:06;19.90;;;17.93;;
2213;SDS011;1113;42.018;23.986;2023-06-22T06:15:34;17.17;;;15.43;;
2213;SDS011;1113;42.018;23.986;2023-06-22T06:18:01;18.70;;;16.60;;
2213;SDS011;1113;42.018;23.986;2023-06-22T06:20:30;17.17;;;15.50;;
2213;SDS011;1113;42.018;23.986;2023-06-22T06:22:57;17.87;;;16.17;;
2213;SDS011;1113;42.018;23.986;2023-06-22T06:25:24;18.40;;;14.57;;
2213;SDS011;1113;42.018;23.986;2023-06-22T06:27:51;17.20;;;15.60;;
2213;SDS011;1113;42.018;23.986;2023-06-22T06:30:21;16.70;;;14.90;;
2213;SDS011;1113;42.018;23.986;2023-06-22T06:32:48;16.50;;;14.90;;
2213;SDS011;1113;42.018;23.986;2023-06-22T06:35:16;16.87;;;14.90;;
2213;SDS011;1113;42.018;23.986;2023-06-22T06:37:43;18.13;;;16.27;;
2213;SDS011;1113;42.018;23.986;2023-06-22T06:40:11;17.00;;;15.33;;
2213;SDS011;1113;42.018;23.986;2023-06-22T06:42:40;17.13;;;15.40;;
2213;SDS011;1113;42.018;23.986;2023-06-22T06:45:09;16.77;;;15.20;;
2213;SDS011;1113;42.018;23.986;2023-06-22T06:47:38;22.10;;;14.67;;
2213;SDS011;1113;42.018;23.986;2023-06-22T06:50:06;15.80;;;14.30;;
2213;SDS011;1113;42.018;23.986;2023-06-22T06:52:33;15.67;;;13.90;;
2213;SDS011;1113;42.018;23.986;2023-06-22T06:55:01;14.33;;;12.93;;
2213;SDS011;1113;42.018;23.986;2023-06-22T06:57:29;14.90;;;13.43;;
2213;SDS011;1113;42.018;23.986;2023-06-22T06:59:57;13.17;;;11.90;;
2213;SDS011;1113;42.018;23.986;2023-06-22T07:02:25;15.17;;;13.77;;
2213;SDS011;1113;42.018;23.986;2023-06-22T07:04:54;15.10;;;13.60;;
2213;SDS011;1113;42.018;23.986;2023-06-22T07:07:21;13.80;;;12.50;;
2213;SDS011;1113;42.018;23.986;2023-06-22T07:09:48;15.13;;;13.53;;
2213;SDS011;1113;42.018;23.986;2023-06-22T07:12:15;18.10;;;13.80;;
2213;SDS011;1113;42.018;23.986;2023-06-22T07:14:41;13.50;;;12.23;;
2213;SDS011;1113;42.018;23.986;2023-06-22T07:17:08;13.30;;;11.83;;
2213;SDS011;1113;42.018;23.986;2023-06-22T07:19:35;14.17;;;12.63;;
2213;SDS011;1113;42.018;23.986;2023-06-22T07:22:03;13.03;;;11.73;;
2213;SDS011;1113;42.018;23.986;2023-06-22T07:24:31;13.93;;;12.43;;
2213;SDS011;1113;42.018;23.986;2023-06-22T07:26:58;12.20;;;10.90;;
2213;SDS011;1113;42.018;23.986;2023-06-22T07:29:25;13.27;;;11.97;;
2213;SDS011;1113;42.018;23.986;2023-06-22T07:31:52;13.50;;;12.03;;
2213;SDS011;1113;42.018;23.986;2023-06-22T07:34:21;13.10;;;11.90;;
2213;SDS011;1113;42.018;23.986;2023-06-22T07:36:48;23.20;;;11.90;;
2213;SDS011;1113;42.018;23.986;2023-06-22T07:39:16;12.80;;;11.50;;
2213;SDS011;1113;42.018;23.986;2023-06-22T07:41:43;13.03;;;11.23;;
2213;SDS011;1113;42.018;23.986;2023-06-22T07:44:10;15.07;;;10.90;;
2213;SDS011;1113;42.018;23.986;2023-06-22T07:46:36;10.63;;;9.50;;
2213;SDS011;1113;42.018;23.986;2023-06-22T07:49:03;10.57;;;9.57;;
2213;SDS011;1113;42.018;23.986;2023-06-22T07:51:30;11.40;;;10.00;;
2213;SDS011;1113;42.018;23.986;2023-06-22T07:53:57;16.17;;;10.20;;
2213;SDS011;1113;42.018;23.986;2023-06-22T07:56:25;11.90;;;9.47;;
2213;SDS011;1113;42.018;23.986;2023-06-22T07:58:52;9.50;;;8.60;;
2213;SDS011;1113;42.018;23.986;2023-06-22T08:01:20;14.90;;;8.07;;
2213;SDS011;1113;42.018;23.986;2023-06-22T08:03:47;9.03;;;8.13;;
2213;SDS011;1113;42.018;23.986;2023-06-22T08:06:14;8.90;;;7.33;;
2213;SDS011;1113;42.018;23.986;2023-06-22T08:08:41;7.00;;;6.30;;
2213;SDS011;1113;42.018;23.986;2023-06-22T08:11:08;13.20;;;8.37;;
2213;SDS011;1113;42.018;23.986;2023-06-22T08:13:37;9.93;;;6.90;;
2213;SDS011;1113;42.018;23.986;2023-06-22T08:16:04;15.90;;;7.90;;
2213;SDS011;1113;42.018;23.986;2023-06-22T08:18:32;8.97;;;8.00;;
2213;SDS011;1113;42.018;23.986;2023-06-22T08:20:59;9.63;;;7.73;;
2213;SDS011;1113;42.018;23.986;2023-06-22T08:23:26;11.90;;;7.73;;
2213;SDS011;1113;42.018;23.986;2023-06-22T08:25:52;7.43;;;6.63;;
2213;SDS011;1113;42.018;23.986;2023-06-22T08:28:19;8.80;;;7.90;;
2213;SDS011;1113;42.018;23.986;2023-06-22T08:30:47;10.83;;;9.33;;
2213;SDS011;1113;42.018;23.986;2023-06-22T08:33:14;8.77;;;7.87;;
2213;SDS011;1113;42.018;23.986;2023-06-22T08:35:41;8.50;;;7.70;;
2213;SDS011;1113;42.018;23.986;2023-06-22T08:38:08;7.53;;;6.73;;
2213;SDS011;1113;42.018;23.986;2023-06-22T08:40:35;10.60;;;7.77;;
2213;SDS011;1113;42.018;23.986;2023-06-22T08:43:02;9.00;;;7.30;;
2213;SDS011;1113;42.018;23.986;2023-06-22T08:45:30;8.10;;;7.17;;
2213;SDS011;1113;42.018;23.986;2023-06-22T08:47:58;9.30;;;7.67;;
2213;SDS011;1113;42.018;23.986;2023-06-22T08:50:25;8.60;;;7.70;;
2213;SDS011;1113;42.018;23.986;2023-06-22T08:52:51;7.70;;;7.00;;
2213;SDS011;1113;42.018;23.986;2023-06-22T08:55:18;9.87;;;7.30;;
2213;SDS011;1113;42.018;23.986;2023-06-22T08:57:45;9.30;;;7.30;;
2213;SDS011;1113;42.018;23.986;2023-06-22T09:00:12;9.57;;;7.30;;
2213;SDS011;1113;42.018;23.986;2023-06-22T09:02:44;9.97;;;8.07;;
2213;SDS011;1113;42.018;23.986;2023-06-22T09:05:13;16.23;;;10.90;;
2213;SDS011;1113;42.018;23.986;2023-06-22T09:07:40;7.57;;;6.83;;
2213;SDS011;1113;42.018;23.986;2023-06-22T09:10:07;8.40;;;7.50;;
2213;SDS011;1113;42.018;23.986;2023-06-22T09:12:34;10.43;;;7.87;;
2213;SDS011;1113;42.018;23.986;2023-06-22T09:15:03;10.57;;;8.10;;
2213;SDS011;1113;42.018;23.986;2023-06-22T09:17:32;8.97;;;8.07;;
2213;SDS011;1113;42.018;23.986;2023-06-22T09:19:59;7.87;;;7.07;;
2213;SDS011;1113;42.018;23.986;2023-06-22T09:22:27;9.90;;;7.23;;
2213;SDS011;1113;42.018;23.986;2023-06-22T09:24:55;10.30;;;6.87;;
2213;SDS011;1113;42.018;23.986;2023-06-22T09:27:22;7.00;;;6.30;;
2213;SDS011;1113;42.018;23.986;2023-06-22T09:29:48;11.70;;;8.63;;
2213;SDS011;1113;42.018;23.986;2023-06-22T09:32:15;9.80;;;8.40;;
2213;SDS011;1113;42.018;23.986;2023-06-22T09:34:42;7.97;;;7.27;;
2213;SDS011;1113;42.018;23.986;2023-06-22T09:37:09;7.80;;;6.77;;
2213;SDS011;1113;42.018;23.986;2023-06-22T09:39:37;8.67;;;7.17;;
2213;SDS011;1113;42.018;23.986;2023-06-22T09:42:04;8.20;;;6.53;;
2213;SDS011;1113;42.018;23.986;2023-06-22T09:44:37;7.70;;;7.00;;
2213;SDS011;1113;42.018;23.986;2023-06-22T09:47:17;7.77;;;7.00;;
2213;SDS011;1113;42.018;23.986;2023-06-22T09:49:44;8.70;;;7.03;;
2213;SDS011;1113;42.018;23.986;2023-06-22T09:52:11;7.60;;;6.77;;
2213;SDS011;1113;42.018;23.986;2023-06-22T09:54:39;8.67;;;7.77;;
2213;SDS011;1113;42.018;23.986;2023-06-22T09:57:06;8.63;;;7.77;;
2213;SDS011;1113;42.018;23.986;2023-06-22T09:59:33;8.03;;;7.23;;
2213;SDS011;1113;42.018;23.986;2023-06-22T10:02:00;8.23;;;7.43;;
2213;SDS011;1113;42.018;23.986;2023-06-22T10:04:26;8.33;;;7.53;;
2213;SDS011;1113;42.018;23.986;2023-06-22T10:06:53;8.37;;;7.57;;
2213;SDS011;1113;42.018;23.986;2023-06-22T10:09:20;24.10;;;9.10;;
2213;SDS011;1113;42.018;23.986;2023-06-22T10:11:48;8.30;;;7.10;;
2213;SDS011;1113;42.018;23.986;2023-06-22T10:14:15;8.10;;;7.30;;
2213;SDS011;1113;42.018;23.986;2023-06-22T10:16:42;7.13;;;6.43;;
2213;SDS011;1113;42.018;23.986;2023-06-22T10:19:09;7.50;;;6.77;;
2213;SDS011;1113;42.018;23.986;2023-06-22T10:21:35;11.27;;;10.07;;
2213;SDS011;1113;42.018;23.986;2023-06-22T10:24:02;12.60;;;7.80;;
2213;SDS011;1113;42.018;23.986;2023-06-22T10:26:31;8.10;;;6.97;;
2213;SDS011;1113;42.018;23.986;2023-06-22T10:28:59;9.73;;;8.40;;
2213;SDS011;1113;42.018;23.986;2023-06-22T10:31:26;10.03;;;9.03;;
2213;SDS011;1113;42.018;23.986;2023-06-22T10:33:53;9.00;;;8.10;;
2213;SDS011;1113;42.018;23.986;2023-06-22T10:36:21;8.80;;;7.43;;
2213;SDS011;1113;42.018;23.986;2023-06-22T10:38:48;8.10;;;7.30;;
2213;SDS011;1113;42.018;23.986;2023-06-22T10:41:15;10.90;;;8.77;;
2213;SDS011;1113;42.018;23.986;2023-06-22T10:43:42;8.00;;;7.20;;
2213;SDS011;1113;42.018;23.986;2023-06-22T10:46:10;7.97;;;7.17;;
2213;SDS011;1113;42.018;23.986;2023-06-22T10:48:37;9.70;;;7.77;;
2213;SDS011;1113;42.018;23.986;2023-06-22T10:51:03;8.90;;;7.50;;
2213;SDS011;1113;42.018;23.986;2023-06-22T10:53:31;8.57;;;7.73;;
2213;SDS011;1113;42.018;23.986;2023-06-22T10:55:58;8.67;;;7.20;;
2213;SDS011;1113;42.018;23.986;2023-06-22T10:58:25;7.30;;;6.60;;
2213;SDS011;1113;42.018;23.986;2023-06-22T11:00:51;8.17;;;7.37;;
2213;SDS011;1113;42.018;23.986;2023-06-22T11:03:19;8.13;;;7.33;;
2213;SDS011;1113;42.018;23.986;2023-06-22T11:05:46;7.77;;;6.97;;
2213;SDS011;1113;42.018;23.986;2023-06-22T11:08:13;14.73;;;8.67;;
2213;SDS011;1113;42.018;23.986;2023-06-22T11:10:40;7.87;;;7.17;;
2213;SDS011;1113;42.018;23.986;2023-06-22T11:13:07;8.03;;;7.33;;
2213;SDS011;1113;42.018;23.986;2023-06-22T11:15:34;8.80;;;8.00;;
2213;SDS011;1113;42.018;23.986;2023-06-22T11:18:01;9.63;;;7.17;;
2213;SDS011;1113;42.018;23.986;2023-06-22T11:20:31;7.70;;;6.90;;
2213;SDS011;1113;42.018;23.986;2023-06-22T11:23:03;9.93;;;6.93;;
2213;SDS011;1113;42.018;23.986;2023-06-22T11:25:30;7.40;;;6.70;;
2213;SDS011;1113;42.018;23.986;2023-06-22T11:27:57;8.33;;;7.20;;
2213;SDS011;1113;42.018;23.986;2023-06-22T11:30:24;7.80;;;7.00;;
2213;SDS011;1113;42.018;23.986;2023-06-22T11:32:50;9.10;;;7.40;;
2213;SDS011;1113;42.018;23.986;2023-06-22T11:35:17;8.30;;;7.33;;
2213;SDS011;1113;42.018;23.986;2023-06-22T11:37:45;7.60;;;6.90;;
2213;SDS011;1113;42.018;23.986;2023-06-22T11:40:12;9.60;;;7.20;;
2213;SDS011;1113;42.018;23.986;2023-06-22T11:42:39;8.20;;;7.23;;
2213;SDS011;1113;42.018;23.986;2023-06-22T11:45:06;8.83;;;8.03;;
2213;SDS011;1113;42.018;23.986;2023-06-22T11:47:33;7.87;;;7.17;;
2213;SDS011;1113;42.018;23.986;2023-06-22T11:50:00;7.60;;;6.90;;
2213;SDS011;1113;42.018;23.986;2023-06-22T11:52:30;9.30;;;8.37;;
2213;SDS011;1113;42.018;23.986;2023-06-22T11:54:58;7.70;;;6.90;;
2213;SDS011;1113;42.018;23.986;2023-06-22T11:57:25;8.93;;;7.63;;
2213;SDS011;1113;42.018;23.986;2023-06-22T11:59:52;10.70;;;9.30;;
2213;SDS011;1113;42.018;23.986;2023-06-22T12:02:18;7.87;;;7.13;;
2213;SDS011;1113;42.018;23.986;2023-06-22T12:04:45;8.07;;;6.80;;
2213;SDS011;1113;42.018;23.986;2023-06-22T12:07:12;8.03;;;6.80;;
2213;SDS011;1113;42.018;23.986;2023-06-22T12:09:39;8.00;;;7.20;;
2213;SDS011;1113;42.018;23.986;2023-06-22T12:12:07;8.40;;;7.60;;
2213;SDS011;1113;42.018;23.986;2023-06-22T12:14:34;8.57;;;7.77;;
2213;SDS011;1113;42.018;23.986;2023-06-22T12:17:02;8.53;;;7.73;;
2213;SDS011;1113;42.018;23.986;2023-06-22T12:19:28;7.40;;;6.70;;
2213;SDS011;1113;42.018;23.986;2023-06-22T12:21:55;7.57;;;6.77;;
2213;SDS011;1113;42.018;23.986;2023-06-22T12:24:22;10.27;;;8.50;;
2213;SDS011;1113;42.018;23.986;2023-06-22T12:26:49;9.33;;;7.57;;
2213;SDS011;1113;42.018;23.986;2023-06-22T12:29:17;8.97;;;8.07;;
2213;SDS011;1113;42.018;23.986;2023-06-22T12:31:44;8.57;;;7.77;;
2213;SDS011;1113;42.018;23.986;2023-06-22T12:34:11;9.33;;;8.00;;
2213;SDS011;1113;42.018;23.986;2023-06-22T12:36:37;8.23;;;7.07;;
2213;SDS011;1113;42.018;23.986;2023-06-22T12:39:04;7.53;;;6.80;;
2213;SDS011;1113;42.018;23.986;2023-06-22T12:41:31;9.87;;;7.67;;
2213;SDS011;1113;42.018;23.986;2023-06-22T12:43:58;9.03;;;8.10;;
2213;SDS011;1113;42.018;23.986;2023-06-22T12:46:26;9.87;;;7.60;;
2213;SDS011;1113;42.018;23.986;2023-06-22T12:48:53;8.47;;;7.67;;
2213;SDS011;1113;42.018;23.986;2023-06-22T12:51:20;11.20;;;7.87;;
2213;SDS011;1113;42.018;23.986;2023-06-22T12:53:48;8.50;;;7.60;;
2213;SDS011;1113;42.018;23.986;2023-06-22T12:56:15;8.83;;;7.93;;
2213;SDS011;1113;42.018;23.986;2023-06-22T12:58:41;9.00;;;7.40;;
2213;SDS011;1113;42.018;23.986;2023-06-22T13:01:08;8.67;;;7.87;;
2213;SDS011;1113;42.018;23.986;2023-06-22T13:03:37;8.40;;;7.60;;
2213;SDS011;1113;42.018;23.986;2023-06-22T13:06:04;8.57;;;7.77;;
2213;SDS011;1113;42.018;23.986;2023-06-22T13:08:30;9.30;;;8.40;;
2213;SDS011;1113;42.018;23.986;2023-06-22T13:10:57;8.90;;;7.97;;
2213;SDS011;1113;42.018;23.986;2023-06-22T13:13:25;7.83;;;7.03;;
2213;SDS011;1113;42.018;23.986;2023-06-22T13:15:52;9.10;;;8.20;;
2213;SDS011;1113;42.018;23.986;2023-06-22T13:18:19;8.50;;;7.70;;
2213;SDS011;1113;42.018;23.986;2023-06-22T13:20:47;8.90;;;8.00;;
2213;SDS011;1113;42.018;23.986;2023-06-22T13:23:14;8.37;;;7.57;;
2213;SDS011;1113;42.018;23.986;2023-06-22T13:25:40;10.17;;;8.17;;
2213;SDS011;1113;42.018;23.986;2023-06-22T13:28:07;8.87;;;7.47;;
2213;SDS011;1113;42.018;23.986;2023-06-22T13:30:35;9.40;;;7.50;;
2213;SDS011;1113;42.018;23.986;2023-06-22T13:33:02;7.63;;;6.93;;
2213;SDS011;1113;42.018;23.986;2023-06-22T13:35:29;8.63;;;7.67;;
2213;SDS011;1113;42.018;23.986;2023-06-22T13:37:57;8.60;;;7.80;;
2213;SDS011;1113;42.018;23.986;2023-06-22T13:40:24;8.50;;;7.70;;
2213;SDS011;1113;42.018;23.986;2023-06-22T13:42:50;8.40;;;7.60;;
2213;SDS011;1113;42.018;23.986;2023-06-22T13:45:17;8.33;;;7.63;;
2213;SDS011;1113;42.018;23.986;2023-06-22T13:47:45;10.43;;;9.20;;
2213;SDS011;1113;42.018;23.986;2023-06-22T13:50:12;10.70;;;8.17;;
2213;SDS011;1113;42.018;23.986;2023-06-22T13:52:39;11.77;;;8.50;;
2213;SDS011;1113;42.018;23.986;2023-06-22T13:55:07;9.80;;;8.90;;
2213;SDS011;1113;42.018;23.986;2023-06-22T13:57:35;9.87;;;8.80;;
2213;SDS011;1113;42.018;23.986;2023-06-22T14:00:03;10.23;;;9.23;;
2213;SDS011;1113;42.018;23.986;2023-06-22T14:02:31;10.20;;;9.20;;
2213;SDS011;1113;42.018;23.986;2023-06-22T14:04:57;9.90;;;9.00;;
2213;SDS011;1113;42.018;23.986;2023-06-22T14:07:24;9.87;;;8.87;;
2213;SDS011;1113;42.018;23.986;2023-06-22T14:09:51;9.33;;;8.43;;
2213;SDS011;1113;42.018;23.986;2023-06-22T14:12:19;9.93;;;8.93;;
2213;SDS011;1113;42.018;23.986;2023-06-22T14:14:46;9.67;;;8.77;;
2213;SDS011;1113;42.018;23.986;2023-06-22T14:17:13;9.30;;;8.40;;
2213;SDS011;1113;42.018;23.986;2023-06-22T14:19:39;11.33;;;8.70;;
2213;SDS011;1113;42.018;23.986;2023-06-22T14:22:06;9.77;;;8.77;;
2213;SDS011;1113;42.018;23.986;2023-06-22T14:24:33;11.07;;;8.07;;
2213;SDS011;1113;42.018;23.986;2023-06-22T14:27:00;9.60;;;8.67;;
2213;SDS011;1113;42.018;23.986;2023-06-22T14:29:29;9.60;;;8.53;;
2213;SDS011;1113;42.018;23.986;2023-06-22T14:31:56;9.73;;;8.50;;
2213;SDS011;1113;42.018;23.986;2023-06-22T14:34:23;10.10;;;9.20;;
2213;SDS011;1113;42.018;23.986;2023-06-22T14:36:50;10.23;;;9.23;;
2213;SDS011;1113;42.018;23.986;2023-06-22T14:39:16;9.40;;;8.47;;
2213;SDS011;1113;42.018;23.986;2023-06-22T14:41:43;9.60;;;8.67;;
2213;SDS011;1113;42.018;23.986;2023-06-22T14:44:10;9.50;;;8.50;;
2213;SDS011;1113;42.018;23.986;2023-06-22T14:46:38;9.90;;;8.90;;
2213;SDS011;1113;42.018;23.986;2023-06-22T14:49:05;12.13;;;8.67;;
2213;SDS011;1113;42.018;23.986;2023-06-22T14:51:31;9.50;;;8.60;;
2213;SDS011;1113;42.018;23.986;2023-06-22T14:53:58;9.30;;;8.30;;
2213;SDS011;1113;42.018;23.986;2023-06-22T14:56:25;9.60;;;8.70;;
2213;SDS011;1113;42.018;23.986;2023-06-22T14:58:52;8.87;;;7.97;;
2213;SDS011;1113;42.018;23.986;2023-06-22T15:01:18;10.27;;;9.27;;
2213;SDS011;1113;42.018;23.986;2023-06-22T15:03:46;11.13;;;8.50;;
2213;SDS011;1113;42.018;23.986;2023-06-22T15:06:13;10.40;;;9.40;;
2213;SDS011;1113;42.018;23.986;2023-06-22T15:08:41;9.07;;;8.17;;
2213;SDS011;1113;42.018;23.986;2023-06-22T15:11:08;10.80;;;9.53;;
2213;SDS011;1113;42.018;23.986;2023-06-22T15:13:35;9.37;;;8.57;;
2213;SDS011;1113;42.018;23.986;2023-06-22T15:16:05;11.40;;;9.50;;
2213;SDS011;1113;42.018;23.986;2023-06-22T15:18:32;10.13;;;9.00;;
2213;SDS011;1113;42.018;23.986;2023-06-22T15:21:02;13.67;;;10.67;;
2213;SDS011;1113;42.018;23.986;2023-06-22T15:23:30;11.00;;;9.87;;
2213;SDS011;1113;42.018;23.986;2023-06-22T15:25:58;11.00;;;9.27;;
2213;SDS011;1113;42.018;23.986;2023-06-22T15:28:26;11.90;;;9.07;;
2213;SDS011;1113;42.018;23.986;2023-06-22T15:30:54;9.23;;;8.33;;
2213;SDS011;1113;42.018;23.986;2023-06-22T15:33:21;9.90;;;8.97;;
2213;SDS011;1113;42.018;23.986;2023-06-22T15:35:48;11.03;;;8.97;;
2213;SDS011;1113;42.018;23.986;2023-06-22T15:38:16;9.37;;;8.47;;
2213;SDS011;1113;42.018;23.986;2023-06-22T15:40:42;9.20;;;8.30;;
2213;SDS011;1113;42.018;23.986;2023-06-22T15:43:09;9.50;;;8.50;;
2213;SDS011;1113;42.018;23.986;2023-06-22T15:45:36;11.13;;;8.40;;
2213;SDS011;1113;42.018;23.986;2023-06-22T15:48:03;10.47;;;8.93;;
2213;SDS011;1113;42.018;23.986;2023-06-22T15:50:30;10.20;;;9.03;;
2213;SDS011;1113;42.018;23.986;2023-06-22T15:52:57;9.90;;;8.90;;
2213;SDS011;1113;42.018;23.986;2023-06-22T15:55:25;11.90;;;9.50;;
2213;SDS011;1113;42.018;23.986;2023-06-22T15:57:53;10.10;;;8.30;;
2213;SDS011;1113;42.018;23.986;2023-06-22T16:00:19;14.17;;;9.90;;
2213;SDS011;1113;42.018;23.986;2023-06-22T16:02:47;11.57;;;10.10;;
2213;SDS011;1113;42.018;23.986;2023-06-22T16:05:14;11.50;;;10.40;;
2213;SDS011;1113;42.018;23.986;2023-06-22T16:07:40;11.23;;;10.13;;
2213;SDS011;1113;42.018;23.986;2023-06-22T16:10:07;11.67;;;10.20;;
2213;SDS011;1113;42.018;23.986;2023-06-22T16:12:36;11.00;;;9.70;;
2213;SDS011;1113;42.018;23.986;2023-06-22T16:15:03;11.40;;;10.30;;
2213;SDS011;1113;42.018;23.986;2023-06-22T16:17:31;12.07;;;10.20;;
2213;SDS011;1113;42.018;23.986;2023-06-22T16:20:02;13.23;;;10.00;;
2213;SDS011;1113;42.018;23.986;2023-06-22T16:22:31;11.00;;;9.83;;
2213;SDS011;1113;42.018;23.986;2023-06-22T16:24:58;11.77;;;10.67;;
2213;SDS011;1113;42.018;23.986;2023-06-22T16:27:25;11.70;;;10.50;;
2213;SDS011;1113;42.018;23.986;2023-06-22T16:29:54;11.90;;;10.90;;
2213;SDS011;1113;42.018;23.986;2023-06-22T16:32:21;12.03;;;10.80;;
2213;SDS011;1113;42.018;23.986;2023-06-22T16:34:48;12.90;;;11.60;;
2213;SDS011;1113;42.018;23.986;2023-06-22T16:37:15;12.10;;;10.80;;
2213;SDS011;1113;42.018;23.986;2023-06-22T16:39:42;13.10;;;11.07;;
2213;SDS011;1113;42.018;23.986;2023-06-22T16:42:09;11.77;;;10.57;;
2213;SDS011;1113;42.018;23.986;2023-06-22T16:44:35;19.20;;;11.70;;
2213;SDS011;1113;42.018;23.986;2023-06-22T16:47:04;12.37;;;11.17;;
2213;SDS011;1113;42.018;23.986;2023-06-22T16:49:32;12.57;;;11.27;;
2213;SDS011;1113;42.018;23.986;2023-06-22T16:52:00;17.40;;;12.13;;
2213;SDS011;1113;42.018;23.986;2023-06-22T16:54:28;21.10;;;12.03;;
2213;SDS011;1113;42.018;23.986;2023-06-22T16:56:55;13.33;;;10.87;;
2213;SDS011;1113;42.018;23.986;2023-06-22T16:59:25;12.80;;;11.50;;
2213;SDS011;1113;42.018;23.986;2023-06-22T17:01:53;13.87;;;11.67;;
2213;SDS011;1113;42.018;23.986;2023-06-22T17:04:23;16.33;;;11.53;;
2213;SDS011;1113;42.018;23.986;2023-06-22T17:06:53;13.67;;;11.40;;
2213;SDS011;1113;42.018;23.986;2023-06-22T17:09:22;14.50;;;12.40;;
2213;SDS011;1113;42.018;23.986;2023-06-22T17:11:53;17.00;;;12.27;;
2213;SDS011;1113;42.018;23.986;2023-06-22T17:14:20;12.60;;;11.30;;
2213;SDS011;1113;42.018;23.986;2023-06-22T17:16:47;13.47;;;12.17;;
2213;SDS011;1113;42.018;23.986;2023-06-22T17:19:16;14.07;;;12.60;;
2213;SDS011;1113;42.018;23.986;2023-06-22T17:21:44;13.83;;;12.43;;
2213;SDS011;1113;42.018;23.986;2023-06-22T17:24:13;11.80;;;10.60;;
2213;SDS011;1113;42.018;23.986;2023-06-22T17:26:44;12.77;;;11.47;;
2213;SDS011;1113;42.018;23.986;2023-06-22T17:29:12;12.43;;;11.13;;
2213;SDS011;1113;42.018;23.986;2023-06-22T17:31:40;12.90;;;10.50;;
2213;SDS011;1113;42.018;23.986;2023-06-22T17:34:09;16.60;;;11.30;;
2213;SDS011;1113;42.018;23.986;2023-06-22T17:36:42;12.57;;;11.23;;
2213;SDS011;1113;42.018;23.986;2023-06-22T17:39:12;12.93;;;11.53;;
2213;SDS011;1113;42.018;23.986;2023-06-22T17:41:39;13.70;;;11.20;;
2213;SDS011;1113;42.018;23.986;2023-06-22T17:44:09;11.87;;;10.33;;
2213;SDS011;1113;42.018;23.986;2023-06-22T17:46:38;11.30;;;10.20;;
2213;SDS011;1113;42.018;23.986;2023-06-22T17:49:06;12.20;;;10.90;;
2213;SDS011;1113;42.018;23.986;2023-06-22T17:51:33;12.10;;;11.00;;
2213;SDS011;1113;42.018;23.986;2023-06-22T17:54:01;11.93;;;10.63;;
2213;SDS011;1113;42.018;23.986;2023-06-22T17:56:31;12.43;;;11.23;;
2213;SDS011;1113;42.018;23.986;2023-06-22T17:58:58;16.30;;;11.77;;
2213;SDS011;1113;42.018;23.986;2023-06-22T18:01:29;14.60;;;11.47;;
2213;SDS011;1113;42.018;23.986;2023-06-22T18:03:59;12.33;;;11.00;;
2213;SDS011;1113;42.018;23.986;2023-06-22T18:06:27;12.97;;;11.67;;
2213;SDS011;1113;42.018;23.986;2023-06-22T18:08:56;16.53;;;11.20;;
2213;SDS011;1113;42.018;23.986;2023-06-22T18:11:27;13.77;;;11.07;;
2213;SDS011;1113;42.018;23.986;2023-06-22T18:14:00;14.70;;;12.43;;
2213;SDS011;1113;42.018;23.986;2023-06-22T18:16:29;13.37;;;11.97;;
2213;SDS011;1113;42.018;23.986;2023-06-22T18:18:57;12.17;;;10.90;;
2213;SDS011;1113;42.018;23.986;2023-06-22T18:21:25;11.23;;;10.07;;
2213;SDS011;1113;42.018;23.986;2023-06-22T18:23:53;21.00;;;11.80;;
2213;SDS011;1113;42.018;23.986;2023-06-22T18:26:21;13.83;;;11.53;;
2213;SDS011;1113;42.018;23.986;2023-06-22T18:28:51;14.13;;;11.60;;
2213;SDS011;1113;42.018;23.986;2023-06-22T18:31:19;12.20;;;10.90;;
2213;SDS011;1113;42.018;23.986;2023-06-22T18:33:47;13.07;;;11.77;;
2213;SDS011;1113;42.018;23.986;2023-06-22T18:36:15;21.90;;;12.07;;
2213;SDS011;1113;42.018;23.986;2023-06-22T18:38:46;34.90;;;11.77;;
2213;SDS011;1113;42.018;23.986;2023-06-22T18:41:21;20.33;;;12.10;;
2213;SDS011;1113;42.018;23.986;2023-06-22T18:44:00;17.43;;;12.57;;
2213;SDS011;1113;42.018;23.986;2023-06-22T18:46:30;14.93;;;12.57;;
2213;SDS011;1113;42.018;23.986;2023-06-22T18:49:02;15.37;;;12.33;;
2213;SDS011;1113;42.018;23.986;2023-06-22T18:51:51;14.10;;;12.70;;
2213;SDS011;1113;42.018;23.986;2023-06-22T18:54:22;16.20;;;12.43;;
2213;SDS011;1113;42.018;23.986;2023-06-22T18:56:53;14.90;;;12.40;;
2213;SDS011;1113;42.018;23.986;2023-06-22T18:59:42;18.77;;;13.63;;
2213;SDS011;1113;42.018;23.986;2023-06-22T19:05:06;14.90;;;12.50;;
2213;SDS011;1113;42.018;23.986;2023-06-22T19:10:25;19.90;;;14.60;;
2213;SDS011;1113;42.018;23.986;2023-06-22T19:12:54;16.03;;;14.23;;
2213;SDS011;1113;42.018;23.986;2023-06-22T19:15:24;17.03;;;13.87;;
2213;SDS011;1113;42.018;23.986;2023-06-22T19:17:59;17.77;;;13.77;;
2213;SDS011;1113;42.018;23.986;2023-06-22T19:20:30;16.77;;;14.67;;
2213;SDS011;1113;42.018;23.986;2023-06-22T19:22:58;17.30;;;14.73;;
2213;SDS011;1113;42.018;23.986;2023-06-22T19:25:25;16.40;;;14.10;;